PWSweather.com
Personal Weather Stations
Station Observations
KMIEASTT1
Tawas Bay, East Tawas, MI 48730

Tawas BayEast Tawas, MI 48730

Lat: 44.28, Lon: -83.48

Elevation: 600

Station Type: Davis VantagePro

http://www.tawasbayweather.com

High Low Average
Temperature 17.4°F-8.1°C 3.1°F-16.1°C 10.2°F-12.1°C
Dew Point 9.6°F-12.4°C -0.4°F-18.0°C 5.2°F-14.9°C
Winds 13.0 mph 20.9 kmh Calm Calm 3.0 mph W4.8 kmh W
Wind Gusts 15.0 mph24.1 kmh -- 6.0 mph9.7 kmh
Humidity 88% 58% 80%
Pressure 30.65 in1037.9 mb 30.34 in1027.4 mb -
Precipitation 0.00 in0.0 mm - -
Hour Temp Dew Point Humidity Winds Wind Gusts Pressure Precip Precip Rate Daily Precip Total
12:00 AM 11.7°F-11.3°C 8.6°F-13.0°C 87% 3.0 mph NW4.8 kmh NW 9.0 mph14.5 kmh 30.36 in1028.1 mb 0.00 in0.0 mm 0.00 in0.0 mm 0.00 in0.0 mm
12:15 AM 11.7°F-11.3°C 8.8°F-12.9°C 88% 2.0 mph NW3.2 kmh NW 7.0 mph11.3 kmh 30.36 in1028.1 mb 0.00 in0.0 mm 0.00 in0.0 mm 0.00 in0.0 mm
12:30 AM 11.5°F-11.4°C 8.6°F-13.0°C 88% 5.0 mph NNW8.0 kmh NNW 9.0 mph14.5 kmh 30.36 in1028.1 mb 0.00 in0.0 mm 0.00 in0.0 mm 0.00 in0.0 mm
12:45 AM 11.4°F-11.4°C 8.5°F-13.1°C 88% 2.0 mph NNW3.2 kmh NNW 6.0 mph9.7 kmh 30.34 in1027.4 mb 0.00 in0.0 mm 0.00 in0.0 mm 0.00 in0.0 mm
01:00 AM 11.3°F-11.5°C 8.5°F-13.1°C 88% 5.0 mph NNW8.0 kmh NNW 7.0 mph11.3 kmh 30.34 in1027.4 mb 0.00 in0.0 mm 0.00 in0.0 mm 0.00 in0.0 mm
01:15 AM 11.2°F-11.6°C 8.1°F-13.3°C 87% 5.0 mph NW8.0 kmh NW 8.0 mph12.9 kmh 30.34 in1027.4 mb 0.00 in0.0 mm 0.00 in0.0 mm 0.00 in0.0 mm
01:30 AM 11.1°F-11.6°C 8.0°F-13.3°C 87% 3.0 mph N4.8 kmh N 8.0 mph12.9 kmh 30.34 in1027.4 mb 0.00 in0.0 mm 0.00 in0.0 mm 0.00 in0.0 mm
01:45 AM 11.2°F-11.6°C 8.1°F-13.3°C 87% 7.0 mph NW11.3 kmh NW 8.0 mph12.9 kmh 30.36 in1028.1 mb 0.00 in0.0 mm 0.00 in0.0 mm 0.00 in0.0 mm
02:00 AM 11.2°F-11.6°C 8.1°F-13.3°C 87% 1.0 mph N1.6 kmh N 7.0 mph11.3 kmh 30.37 in1028.4 mb 0.00 in0.0 mm 0.00 in0.0 mm 0.00 in0.0 mm
02:15 AM 11.2°F-11.6°C 8.1°F-13.3°C 87% 5.0 mph NNW8.0 kmh NNW 9.0 mph14.5 kmh 30.38 in1028.8 mb 0.00 in0.0 mm 0.00 in0.0 mm 0.00 in0.0 mm
02:30 AM 11.0°F-11.7°C 7.9°F-13.4°C 87% 5.0 mph NW8.0 kmh NW 7.0 mph11.3 kmh 30.39 in1029.1 mb 0.00 in0.0 mm 0.00 in0.0 mm 0.00 in0.0 mm
02:45 AM 11.0°F-11.7°C 7.9°F-13.4°C 87% 5.0 mph NW8.0 kmh NW 9.0 mph14.5 kmh 30.40 in1029.5 mb 0.00 in0.0 mm 0.00 in0.0 mm 0.00 in0.0 mm
03:00 AM 10.8°F-11.8°C 7.4°F-13.7°C 86% 2.0 mph N3.2 kmh N 9.0 mph14.5 kmh 30.40 in1029.5 mb 0.00 in0.0 mm 0.00 in0.0 mm 0.00 in0.0 mm
03:15 AM 10.7°F-11.8°C 7.4°F-13.7°C 86% 3.0 mph NNW4.8 kmh NNW 7.0 mph11.3 kmh 30.40 in1029.5 mb 0.00 in0.0 mm 0.00 in0.0 mm 0.00 in0.0 mm
03:30 AM 10.6°F-11.9°C 7.5°F-13.6°C 87% 5.0 mph NW8.0 kmh NW 6.0 mph9.7 kmh 30.40 in1029.5 mb 0.00 in0.0 mm 0.00 in0.0 mm 0.00 in0.0 mm
03:45 AM 10.3°F-12.1°C 7.0°F-13.9°C 86% 4.0 mph NW6.4 kmh NW 5.0 mph8.0 kmh 30.40 in1029.5 mb 0.00 in0.0 mm 0.00 in0.0 mm 0.00 in0.0 mm
04:00 AM 10.0°F-12.2°C 6.7°F-14.1°C 86% 3.0 mph N4.8 kmh N 6.0 mph9.7 kmh 30.40 in1029.5 mb 0.00 in0.0 mm 0.00 in0.0 mm 0.00 in0.0 mm
04:15 AM 9.8°F-12.3°C 6.5°F-14.2°C 86% 2.0 mph NNW3.2 kmh NNW 5.0 mph8.0 kmh 30.39 in1029.1 mb 0.00 in0.0 mm 0.00 in0.0 mm 0.00 in0.0 mm
04:30 AM 9.5°F-12.5°C 6.2°F-14.3°C 86% 2.0 mph N3.2 kmh N 8.0 mph12.9 kmh 30.40 in1029.5 mb 0.00 in0.0 mm 0.00 in0.0 mm 0.00 in0.0 mm
04:45 AM 9.3°F-12.6°C 6.0°F-14.4°C 86% 3.0 mph NNW4.8 kmh NNW 9.0 mph14.5 kmh 30.40 in1029.5 mb 0.00 in0.0 mm 0.00 in0.0 mm 0.00 in0.0 mm
05:00 AM 9.0°F-12.8°C 5.4°F-14.8°C 85% 4.0 mph NW6.4 kmh NW 5.0 mph8.0 kmh 30.40 in1029.5 mb 0.00 in0.0 mm 0.00 in0.0 mm 0.00 in0.0 mm
05:15 AM 8.6°F-13.0°C 5.0°F-15.0°C 85% 1.0 mph NW1.6 kmh NW 6.0 mph9.7 kmh 30.41 in1029.8 mb 0.00 in0.0 mm 0.00 in0.0 mm 0.00 in0.0 mm
05:30 AM 8.3°F-13.2°C 4.7°F-15.2°C 85% 1.0 mph NNW1.6 kmh NNW 6.0 mph9.7 kmh 30.41 in1029.8 mb 0.00 in0.0 mm 0.00 in0.0 mm 0.00 in0.0 mm
05:45 AM 8.1°F-13.3°C 4.5°F-15.3°C 85% 1.0 mph NNW1.6 kmh NNW 5.0 mph8.0 kmh 30.41 in1029.8 mb 0.00 in0.0 mm 0.00 in0.0 mm 0.00 in0.0 mm
06:00 AM 7.9°F-13.4°C 4.3°F-15.4°C 85% 3.0 mph N4.8 kmh N 6.0 mph9.7 kmh 30.40 in1029.5 mb 0.00 in0.0 mm 0.00 in0.0 mm 0.00 in0.0 mm
06:15 AM 7.6°F-13.6°C 4.0°F-15.6°C 85% 1.0 mph NW1.6 kmh NW 5.0 mph8.0 kmh 30.40 in1029.5 mb 0.00 in0.0 mm 0.00 in0.0 mm 0.00 in0.0 mm
06:30 AM 7.4°F-13.7°C 4.1°F-15.5°C 86% 2.0 mph NNW3.2 kmh NNW 6.0 mph9.7 kmh 30.41 in1029.8 mb 0.00 in0.0 mm 0.00 in0.0 mm 0.00 in0.0 mm
06:45 AM 7.2°F-13.8°C 3.9°F-15.6°C 86% 2.0 mph NNW3.2 kmh NNW 6.0 mph9.7 kmh 30.41 in1029.8 mb 0.00 in0.0 mm 0.00 in0.0 mm 0.00 in0.0 mm
07:00 AM 7.1°F-13.8°C 3.8°F-15.7°C 86% 3.0 mph N4.8 kmh N 4.0 mph6.4 kmh 30.42 in1030.1 mb 0.00 in0.0 mm 0.00 in0.0 mm 0.00 in0.0 mm
07:15 AM 6.8°F-14.0°C 3.5°F-15.8°C 86% 1.0 mph N1.6 kmh N 4.0 mph6.4 kmh 30.43 in1030.5 mb 0.00 in0.0 mm 0.00 in0.0 mm 0.00 in0.0 mm
07:30 AM 6.6°F-14.1°C 3.6°F-15.8°C 87% Calm Calm 3.0 mph4.8 kmh 30.44 in1030.8 mb 0.00 in0.0 mm 0.00 in0.0 mm 0.00 in0.0 mm
07:45 AM 6.4°F-14.2°C 3.4°F-15.9°C 87% 4.0 mph NW6.4 kmh NW 5.0 mph8.0 kmh 30.44 in1030.8 mb 0.00 in0.0 mm 0.00 in0.0 mm 0.00 in0.0 mm
08:00 AM 6.1°F-14.4°C 3.1°F-16.1°C 87% 2.0 mph NNW3.2 kmh NNW 3.0 mph4.8 kmh 30.45 in1031.2 mb 0.00 in0.0 mm 0.00 in0.0 mm 0.00 in0.0 mm
08:15 AM 5.8°F-14.6°C 2.8°F-16.2°C 87% 3.0 mph NNW4.8 kmh NNW 4.0 mph6.4 kmh 30.46 in1031.5 mb 0.00 in0.0 mm 0.00 in0.0 mm 0.00 in0.0 mm
08:30 AM 5.8°F-14.6°C 3.0°F-16.1°C 88% 1.0 mph NW1.6 kmh NW 3.0 mph4.8 kmh 30.47 in1031.8 mb 0.00 in0.0 mm 0.00 in0.0 mm 0.00 in0.0 mm
08:45 AM 6.1°F-14.4°C 3.1°F-16.1°C 87% 2.0 mph NW3.2 kmh NW 4.0 mph6.4 kmh 30.49 in1032.5 mb 0.00 in0.0 mm 0.00 in0.0 mm 0.00 in0.0 mm
09:00 AM 6.6°F-14.1°C 3.6°F-15.8°C 87% 1.0 mph WNW1.6 kmh WNW 3.0 mph4.8 kmh 30.49 in1032.5 mb 0.00 in0.0 mm 0.00 in0.0 mm 0.00 in0.0 mm
09:15 AM 7.0°F-13.9°C 4.0°F-15.6°C 87% 3.0 mph NW4.8 kmh NW 6.0 mph9.7 kmh 30.50 in1032.8 mb 0.00 in0.0 mm 0.00 in0.0 mm 0.00 in0.0 mm
09:30 AM 7.3°F-13.7°C 3.2°F-16.0°C 83% 13.0 mph ESE20.9 kmh ESE 15.0 mph24.1 kmh 30.50 in1032.8 mb 0.00 in0.0 mm 0.00 in0.0 mm 0.00 in0.0 mm
09:45 AM 8.3°F-13.2°C 4.7°F-15.2°C 85% 2.0 mph N3.2 kmh N 11.0 mph17.7 kmh 30.51 in1033.2 mb 0.00 in0.0 mm 0.00 in0.0 mm 0.00 in0.0 mm
10:00 AM 9.0°F-12.8°C 5.4°F-14.8°C 85% 2.0 mph NNW3.2 kmh NNW 6.0 mph9.7 kmh 30.52 in1033.5 mb 0.00 in0.0 mm 0.00 in0.0 mm 0.00 in0.0 mm
10:15 AM 9.2°F-12.7°C 5.4°F-14.8°C 84% 5.0 mph NNW8.0 kmh NNW 8.0 mph12.9 kmh 30.52 in1033.5 mb 0.00 in0.0 mm 0.00 in0.0 mm 0.00 in0.0 mm
10:30 AM 10.1°F-12.2°C 6.2°F-14.3°C 84% 4.0 mph NNW6.4 kmh NNW 6.0 mph9.7 kmh 30.52 in1033.5 mb 0.00 in0.0 mm 0.00 in0.0 mm 0.00 in0.0 mm
10:45 AM 10.8°F-11.8°C 6.4°F-14.2°C 82% 2.0 mph NNW3.2 kmh NNW 7.0 mph11.3 kmh 30.53 in1033.9 mb 0.00 in0.0 mm 0.00 in0.0 mm 0.00 in0.0 mm
11:00 AM 11.4°F-11.4°C 7.0°F-13.9°C 82% 4.0 mph N6.4 kmh N 6.0 mph9.7 kmh 30.53 in1033.9 mb 0.00 in0.0 mm 0.00 in0.0 mm 0.00 in0.0 mm
11:15 AM 12.6°F-10.8°C 7.9°F-13.4°C 81% 2.0 mph NNE3.2 kmh NNE 7.0 mph11.3 kmh 30.54 in1034.2 mb 0.00 in0.0 mm 0.00 in0.0 mm 0.00 in0.0 mm
11:30 AM 12.2°F-11.0°C 7.2°F-13.8°C 80% 4.0 mph NW6.4 kmh NW 9.0 mph14.5 kmh 30.54 in1034.2 mb 0.00 in0.0 mm 0.00 in0.0 mm 0.00 in0.0 mm
11:45 AM 12.6°F-10.8°C 7.3°F-13.7°C 79% 4.0 mph N6.4 kmh N 9.0 mph14.5 kmh 30.53 in1033.9 mb 0.00 in0.0 mm 0.00 in0.0 mm 0.00 in0.0 mm
12:00 PM 13.0°F-10.6°C 7.4°F-13.7°C 78% 2.0 mph N3.2 kmh N 8.0 mph12.9 kmh 30.53 in1033.9 mb 0.00 in0.0 mm 0.00 in0.0 mm 0.00 in0.0 mm
12:15 PM 13.0°F-10.6°C 7.4°F-13.7°C 78% 2.0 mph N3.2 kmh N 6.0 mph9.7 kmh 30.53 in1033.9 mb 0.00 in0.0 mm 0.00 in0.0 mm 0.00 in0.0 mm
12:30 PM 13.4°F-10.3°C 7.8°F-13.4°C 78% 2.0 mph N3.2 kmh N 7.0 mph11.3 kmh 30.53 in1033.9 mb 0.00 in0.0 mm 0.00 in0.0 mm 0.00 in0.0 mm
12:45 PM 14.5°F-9.7°C 8.9°F-12.8°C 78% 1.0 mph E1.6 kmh E 6.0 mph9.7 kmh 30.53 in1033.9 mb 0.00 in0.0 mm 0.00 in0.0 mm 0.00 in0.0 mm
01:00 PM 14.9°F-9.5°C 9.3°F-12.6°C 78% 3.0 mph NNW4.8 kmh NNW 7.0 mph11.3 kmh 30.53 in1033.9 mb 0.00 in0.0 mm 0.00 in0.0 mm 0.00 in0.0 mm
01:15 PM 16.1°F-8.8°C 9.6°F-12.4°C 75% 3.0 mph NNW4.8 kmh NNW 6.0 mph9.7 kmh 30.52 in1033.5 mb 0.00 in0.0 mm 0.00 in0.0 mm 0.00 in0.0 mm
01:30 PM 14.7°F-9.6°C 8.5°F-13.1°C 76% 1.0 mph NNW1.6 kmh NNW 4.0 mph6.4 kmh 30.52 in1033.5 mb 0.00 in0.0 mm 0.00 in0.0 mm 0.00 in0.0 mm
01:45 PM 15.3°F-9.3°C 8.5°F-13.1°C 74% 1.0 mph N1.6 kmh N 9.0 mph14.5 kmh 30.52 in1033.5 mb 0.00 in0.0 mm 0.00 in0.0 mm 0.00 in0.0 mm
02:00 PM 15.2°F-9.3°C 9.0°F-12.8°C 76% 2.0 mph N3.2 kmh N 8.0 mph12.9 kmh 30.52 in1033.5 mb 0.00 in0.0 mm 0.00 in0.0 mm 0.00 in0.0 mm
02:15 PM 16.4°F-8.7°C 9.3°F-12.6°C 73% 4.0 mph NNE6.4 kmh NNE 8.0 mph12.9 kmh 30.53 in1033.9 mb 0.00 in0.0 mm 0.00 in0.0 mm 0.00 in0.0 mm
02:30 PM 15.3°F-9.3°C 7.9°F-13.4°C 72% 4.0 mph N6.4 kmh N 7.0 mph11.3 kmh 30.53 in1033.9 mb 0.00 in0.0 mm 0.00 in0.0 mm 0.00 in0.0 mm
02:45 PM 16.5°F-8.6°C 9.4°F-12.6°C 73% 6.0 mph NW9.7 kmh NW 8.0 mph12.9 kmh 30.53 in1033.9 mb 0.00 in0.0 mm 0.00 in0.0 mm 0.00 in0.0 mm
03:00 PM 16.5°F-8.6°C 8.1°F-13.3°C 69% 4.0 mph NW6.4 kmh NW 10.0 mph16.1 kmh 30.54 in1034.2 mb 0.00 in0.0 mm 0.00 in0.0 mm 0.00 in0.0 mm
03:15 PM 16.4°F-8.7°C 8.7°F-12.9°C 71% 3.0 mph N4.8 kmh N 7.0 mph11.3 kmh 30.54 in1034.2 mb 0.00 in0.0 mm 0.00 in0.0 mm 0.00 in0.0 mm
03:30 PM 16.6°F-8.6°C 8.5°F-13.1°C 70% 1.0 mph NNW1.6 kmh NNW 5.0 mph8.0 kmh 30.54 in1034.2 mb 0.00 in0.0 mm 0.00 in0.0 mm 0.00 in0.0 mm
03:45 PM 17.4°F-8.1°C 9.0°F-12.8°C 69% 1.0 mph NNW1.6 kmh NNW 5.0 mph8.0 kmh 30.55 in1034.5 mb 0.00 in0.0 mm 0.00 in0.0 mm 0.00 in0.0 mm
04:00 PM 16.5°F-8.6°C 8.1°F-13.3°C 69% 1.0 mph N1.6 kmh N 4.0 mph6.4 kmh 30.55 in1034.5 mb 0.00 in0.0 mm 0.00 in0.0 mm 0.00 in0.0 mm
04:15 PM 16.4°F-8.7°C 8.0°F-13.3°C 69% 2.0 mph N3.2 kmh N 4.0 mph6.4 kmh 30.56 in1034.9 mb 0.00 in0.0 mm 0.00 in0.0 mm 0.00 in0.0 mm
04:30 PM 16.0°F-8.9°C 8.0°F-13.3°C 70% 1.0 mph NNW1.6 kmh NNW 5.0 mph8.0 kmh 30.56 in1034.9 mb 0.00 in0.0 mm 0.00 in0.0 mm 0.00 in0.0 mm
04:45 PM 15.8°F-9.0°C 7.1°F-13.8°C 68% 3.0 mph NW4.8 kmh NW 4.0 mph6.4 kmh 30.57 in1035.2 mb 0.00 in0.0 mm 0.00 in0.0 mm 0.00 in0.0 mm
05:00 PM 14.6°F-9.7°C 6.3°F-14.3°C 69% 1.0 mph NW1.6 kmh NW 3.0 mph4.8 kmh 30.58 in1035.6 mb 0.00 in0.0 mm 0.00 in0.0 mm 0.00 in0.0 mm
05:15 PM 13.9°F-10.1°C 5.9°F-14.5°C 70% 1.0 mph NW1.6 kmh NW 3.0 mph4.8 kmh 30.59 in1035.9 mb 0.00 in0.0 mm 0.00 in0.0 mm 0.00 in0.0 mm
05:30 PM 13.9°F-10.1°C 1.9°F-16.7°C 58% 7.0 mph SE11.3 kmh SE 8.0 mph12.9 kmh 30.59 in1035.9 mb 0.00 in0.0 mm 0.00 in0.0 mm 0.00 in0.0 mm
05:45 PM 13.6°F-10.2°C 2.0°F-16.7°C 59% 7.0 mph SE11.3 kmh SE 8.0 mph12.9 kmh 30.60 in1036.2 mb 0.00 in0.0 mm 0.00 in0.0 mm 0.00 in0.0 mm
06:00 PM 13.4°F-10.3°C 2.1°F-16.6°C 60% 6.0 mph SE9.7 kmh SE 7.0 mph11.3 kmh 30.61 in1036.6 mb 0.00 in0.0 mm 0.00 in0.0 mm 0.00 in0.0 mm
06:15 PM 13.0°F-10.6°C 2.1°F-16.6°C 61% 6.0 mph SE9.7 kmh SE 7.0 mph11.3 kmh 30.61 in1036.6 mb 0.00 in0.0 mm 0.00 in0.0 mm 0.00 in0.0 mm
06:30 PM 9.2°F-12.7°C 3.7°F-15.7°C 78% Calm Calm -- 30.62 in1036.9 mb 0.00 in0.0 mm 0.00 in0.0 mm 0.00 in0.0 mm
06:45 PM 8.3°F-13.2°C 3.4°F-15.9°C 80% Calm Calm 1.0 mph1.6 kmh 30.62 in1036.9 mb 0.00 in0.0 mm 0.00 in0.0 mm 0.00 in0.0 mm
07:00 PM 7.7°F-13.5°C 3.1°F-16.1°C 81% Calm Calm -- 30.62 in1036.9 mb 0.00 in0.0 mm 0.00 in0.0 mm 0.00 in0.0 mm
07:15 PM 7.1°F-13.8°C 2.8°F-16.2°C 82% 1.0 mph NW1.6 kmh NW 3.0 mph4.8 kmh 30.62 in1036.9 mb 0.00 in0.0 mm 0.00 in0.0 mm 0.00 in0.0 mm
07:30 PM 6.0°F-14.4°C 2.0°F-16.7°C 83% Calm Calm 1.0 mph1.6 kmh 30.62 in1036.9 mb 0.00 in0.0 mm 0.00 in0.0 mm 0.00 in0.0 mm
07:45 PM 5.6°F-14.7°C 2.1°F-16.6°C 85% 1.0 mph NW1.6 kmh NW 2.0 mph3.2 kmh 30.62 in1036.9 mb 0.00 in0.0 mm 0.00 in0.0 mm 0.00 in0.0 mm
08:00 PM 5.1°F-14.9°C 1.6°F-16.9°C 85% 1.0 mph NW1.6 kmh NW 2.0 mph3.2 kmh 30.62 in1036.9 mb 0.00 in0.0 mm 0.00 in0.0 mm 0.00 in0.0 mm
08:15 PM 10.0°F-12.2°C 1.9°F-16.7°C 69% 3.0 mph SE4.8 kmh SE 3.0 mph4.8 kmh 30.63 in1037.3 mb 0.00 in0.0 mm 0.00 in0.0 mm 0.00 in0.0 mm
08:30 PM 10.3°F-12.1°C 1.5°F-16.9°C 67% 4.0 mph ESE6.4 kmh ESE 5.0 mph8.0 kmh 30.62 in1036.9 mb 0.00 in0.0 mm 0.00 in0.0 mm 0.00 in0.0 mm
08:45 PM 10.5°F-11.9°C 1.4°F-17.0°C 66% 5.0 mph ESE8.0 kmh ESE 5.0 mph8.0 kmh 30.62 in1036.9 mb 0.00 in0.0 mm 0.00 in0.0 mm 0.00 in0.0 mm
09:00 PM 10.7°F-11.8°C 1.3°F-17.1°C 65% 5.0 mph ESE8.0 kmh ESE 5.0 mph8.0 kmh 30.63 in1037.3 mb 0.00 in0.0 mm 0.00 in0.0 mm 0.00 in0.0 mm
09:15 PM 9.3°F-12.6°C 1.2°F-17.1°C 69% 4.0 mph ESE6.4 kmh ESE 5.0 mph8.0 kmh 30.63 in1037.3 mb 0.00 in0.0 mm 0.00 in0.0 mm 0.00 in0.0 mm
09:30 PM 8.8°F-12.9°C 1.0°F-17.2°C 70% 4.0 mph ESE6.4 kmh ESE 4.0 mph6.4 kmh 30.62 in1036.9 mb 0.00 in0.0 mm 0.00 in0.0 mm 0.00 in0.0 mm
09:46 PM 3.2°F-16.0°C 0.0°F-17.8°C 86% 2.0 mph NW3.2 kmh NW 5.0 mph8.0 kmh 30.63 in1037.3 mb 0.00 in0.0 mm 0.00 in0.0 mm 0.00 in0.0 mm
10:00 PM 3.2°F-16.0°C 0.0°F-17.8°C 86% Calm Calm 2.0 mph3.2 kmh 30.63 in1037.3 mb 0.00 in0.0 mm 0.00 in0.0 mm 0.00 in0.0 mm
10:15 PM 3.5°F-15.8°C 0.3°F-17.6°C 86% Calm Calm 1.0 mph1.6 kmh 30.63 in1037.3 mb 0.00 in0.0 mm 0.00 in0.0 mm 0.00 in0.0 mm
10:30 PM 3.8°F-15.7°C 0.3°F-17.6°C 85% Calm Calm -- 30.63 in1037.3 mb 0.00 in0.0 mm 0.00 in0.0 mm 0.00 in0.0 mm
10:45 PM 3.8°F-15.7°C 0.3°F-17.6°C 85% Calm Calm 1.0 mph1.6 kmh 30.64 in1037.6 mb 0.00 in0.0 mm 0.00 in0.0 mm 0.00 in0.0 mm
11:00 PM 3.1°F-16.1°C -0.4°F-18.0°C 85% Calm Calm 2.0 mph3.2 kmh 30.65 in1037.9 mb 0.00 in0.0 mm 0.00 in0.0 mm 0.00 in0.0 mm
11:15 PM 3.1°F-16.1°C -0.1°F-17.8°C 86% 2.0 mph NW3.2 kmh NW 3.0 mph4.8 kmh 30.65 in1037.9 mb 0.00 in0.0 mm 0.00 in0.0 mm 0.00 in0.0 mm
11:30 PM 3.4°F-15.9°C 0.2°F-17.7°C 86% 2.0 mph NW3.2 kmh NW 2.0 mph3.2 kmh 30.65 in1037.9 mb 0.00 in0.0 mm 0.00 in0.0 mm 0.00 in0.0 mm
11:45 PM 3.8°F-15.7°C 0.6°F-17.4°C 86% Calm Calm 2.0 mph3.2 kmh 30.65 in1037.9 mb 0.00 in0.0 mm 0.00 in0.0 mm 0.00 in0.0 mm